createdAt,value
2022-10-25T00:00:51.427Z,100579.13
2022-10-25T00:03:20.783Z,100578.13
2022-10-25T00:05:48.792Z,100582.59
2022-10-25T00:08:17.128Z,100580.63
2022-10-25T00:10:45.107Z,100586.78
2022-10-25T00:13:13.199Z,100582.13
2022-10-25T00:15:41.174Z,100587.28
2022-10-25T00:18:09.142Z,100586.84
2022-10-25T00:20:38.716Z,100589.28
2022-10-25T00:23:06.696Z,100582.69
2022-10-25T00:25:34.743Z,100583.44
2022-10-25T00:28:02.718Z,100583.34
2022-10-25T00:30:30.700Z,100584.94
2022-10-25T00:32:58.738Z,100587.41
2022-10-25T00:35:26.769Z,100583.59
2022-10-25T00:37:56.122Z,100586.03
2022-10-25T00:40:24.123Z,100586.69
2022-10-25T00:42:52.105Z,100589.28
2022-10-25T00:45:23.046Z,100583.75
2022-10-25T00:47:58.671Z,100586.19
2022-10-25T00:50:35.886Z,100584.22
2022-10-25T00:53:09.377Z,100594.06
2022-10-25T00:55:38.635Z,100592.25
2022-10-25T00:58:10.794Z,100587.59
2022-10-25T01:00:38.922Z,100592.88
2022-10-25T01:03:07.715Z,100593.75
2022-10-25T01:05:37.013Z,100591.88
2022-10-25T01:08:07.110Z,100588.19
2022-10-25T01:10:35.217Z,100594.34
2022-10-25T01:13:03.424Z,100592.63
2022-10-25T01:15:37.063Z,100593.50
2022-10-25T01:18:10.315Z,100589.78
2022-10-25T01:21:08.891Z,100592.50
2022-10-25T01:23:55.710Z,100596.94
2022-10-25T01:26:46.814Z,100593.50
2022-10-25T01:29:47.055Z,100594.59
2022-10-25T01:32:19.772Z,100589.19
2022-10-25T01:34:51.762Z,100593.88
2022-10-25T01:37:24.133Z,100581.53
2022-10-25T01:39:58.526Z,100588.91
2022-10-25T01:42:34.008Z,100579.56
2022-10-25T01:45:08.105Z,100580.75
2022-10-25T01:47:40.633Z,100577.44
2022-10-25T01:50:12.153Z,100575.94
2022-10-25T01:52:40.129Z,100583.44
2022-10-25T01:55:10.268Z,100580.94
2022-10-25T01:57:49.467Z,100586.59
2022-10-25T02:00:18.893Z,100590.53
2022-10-25T02:03:09.950Z,100582.41
2022-10-25T02:05:47.282Z,100592.38
2022-10-25T02:08:22.576Z,100587.06
2022-10-25T02:10:55.052Z,100585.44
2022-10-25T02:13:28.153Z,100581.00
2022-10-25T02:15:59.719Z,100582.00
2022-10-25T02:21:06.458Z,100583.09
2022-10-25T02:23:35.184Z,100579.78
2022-10-25T02:26:03.992Z,100594.38
2022-10-25T02:28:33.544Z,100587.34
2022-10-25T02:31:02.388Z,100595.72
2022-10-25T02:33:31.754Z,100593.25
2022-10-25T02:36:07.199Z,100587.22
2022-10-25T02:38:35.492Z,100596.53
2022-10-25T02:41:05.096Z,100585.81
2022-10-25T02:43:33.111Z,100590.59
2022-10-25T02:46:01.322Z,100586.28
2022-10-25T02:48:29.295Z,100587.38
2022-10-25T02:50:58.652Z,100586.63
2022-10-25T02:53:26.606Z,100593.13
2022-10-25T02:56:00.745Z,100598.66
2022-10-25T02:58:31.052Z,100595.09
2022-10-25T03:00:59.976Z,100597.91
2022-10-25T03:03:28.904Z,100601.59
2022-10-25T03:05:58.628Z,100608.00
2022-10-25T03:10:56.319Z,100615.00
2022-10-25T03:13:24.471Z,100605.91
2022-10-25T03:15:52.513Z,100607.50
2022-10-25T03:18:20.513Z,100620.81
2022-10-25T03:20:48.503Z,100607.94
2022-10-25T03:23:18.432Z,100609.53
2022-10-25T03:25:47.930Z,100612.75
2022-10-25T03:28:17.692Z,100615.22
2022-10-25T03:30:45.712Z,100609.59
2022-10-25T03:33:13.785Z,100620.19
2022-10-25T03:35:41.782Z,100616.38
2022-10-25T03:38:09.817Z,100627.81
2022-10-25T03:40:39.202Z,100627.75
2022-10-25T03:43:07.218Z,100630.22
2022-10-25T03:45:35.253Z,100627.25
2022-10-25T03:48:03.266Z,100641.41
2022-10-25T03:50:31.265Z,100634.03
2022-10-25T03:52:59.337Z,100641.94
2022-10-25T03:55:27.320Z,100639.25
2022-10-25T03:57:56.666Z,100635.56
2022-10-25T04:00:24.656Z,100644.28
2022-10-25T04:02:59.345Z,100643.31
2022-10-25T04:05:29.949Z,100645.03
2022-10-25T04:07:57.990Z,100647.66
2022-10-25T04:10:26.025Z,100647.66
2022-10-25T04:12:55.004Z,100648.38
2022-10-25T04:15:25.564Z,100652.75
2022-10-25T04:17:54.263Z,100653.47
2022-10-25T04:20:22.267Z,100658.03
2022-10-25T04:22:55.034Z,100656.94
2022-10-25T04:25:23.754Z,100652.38
2022-10-25T04:27:51.729Z,100663.09
2022-10-25T04:30:19.891Z,100661.25
2022-10-25T04:32:49.545Z,100660.25
2022-10-25T04:35:18.307Z,100651.16
2022-10-25T04:37:46.293Z,100653.72
2022-10-25T04:40:14.429Z,100650.06
2022-10-25T04:42:42.438Z,100651.81
2022-10-25T04:45:11.077Z,100651.69
2022-10-25T04:47:39.112Z,100656.97
2022-10-25T04:50:09.203Z,100656.84
2022-10-25T04:52:37.198Z,100646.88
2022-10-25T04:55:05.916Z,100654.13
2022-10-25T04:57:33.939Z,100657.72
2022-10-25T05:00:01.934Z,100661.16
2022-10-25T05:02:29.966Z,100656.59
2022-10-25T05:04:58.006Z,100656.59
2022-10-25T05:07:27.342Z,100668.19
2022-10-25T05:09:55.338Z,100662.88
2022-10-25T05:12:24.512Z,100663.75
2022-10-25T05:14:52.511Z,100670.03
2022-10-25T05:17:20.491Z,100671.00
2022-10-25T05:19:48.516Z,100669.16
2022-10-25T05:22:16.490Z,100665.47
2022-10-25T05:24:45.854Z,100679.00
2022-10-25T05:27:13.837Z,100667.31
2022-10-25T05:29:42.049Z,100673.59
2022-10-25T05:32:10.266Z,100674.47
2022-10-25T05:34:38.248Z,100668.19
2022-10-25T05:37:06.266Z,100687.91
2022-10-25T05:39:34.286Z,100691.47
2022-10-25T05:42:06.319Z,100691.47
2022-10-25T05:44:34.313Z,100689.63
2022-10-25T05:47:02.287Z,100690.63
2022-10-25T05:49:30.292Z,100696.78
2022-10-25T05:51:58.393Z,100706.63
2022-10-25T05:54:26.426Z,100707.47
2022-10-25T05:56:54.413Z,100706.38
2022-10-25T05:59:23.810Z,100707.25
2022-10-25T06:01:51.945Z,100716.34
2022-10-25T06:04:20.073Z,100714.63
2022-10-25T06:06:48.172Z,100713.75
2022-10-25T06:09:16.162Z,100715.72
2022-10-25T06:11:44.177Z,100723.72
2022-10-25T06:14:12.498Z,100723.84
2022-10-25T06:16:41.863Z,100724.84
2022-10-25T06:19:10.000Z,100724.84
2022-10-25T06:21:38.297Z,100732.19
2022-10-25T06:24:06.799Z,100734.91
2022-10-25T06:26:34.791Z,100733.16
2022-10-25T06:29:04.831Z,100735.88
2022-10-25T06:31:33.383Z,100743.25
2022-10-25T06:34:03.244Z,100742.50
2022-10-25T06:36:31.877Z,100744.38
2022-10-25T06:39:05.298Z,100752.38
2022-10-25T06:41:36.884Z,100743.25
2022-10-25T06:44:07.115Z,100756.81
2022-10-25T06:46:57.974Z,100759.28
2022-10-25T06:49:26.531Z,100756.47
2022-10-25T06:51:54.730Z,100755.38
2022-10-25T06:54:22.802Z,100771.38
2022-10-25T06:56:51.153Z,100767.69
2022-10-25T06:59:20.499Z,100768.56
2022-10-25T07:01:48.771Z,100765.72
2022-10-25T07:04:17.042Z,100775.44
2022-10-25T07:06:48.895Z,100775.38
2022-10-25T07:09:19.601Z,100778.69
2022-10-25T07:11:47.614Z,100787.56
2022-10-25T07:14:15.680Z,100778.47
2022-10-25T07:16:43.788Z,100792.88
2022-10-25T07:19:11.786Z,100789.16
2022-10-25T07:21:39.773Z,100792.75
2022-10-25T07:24:11.717Z,100795.34
2022-10-25T07:26:40.382Z,100802.41
2022-10-25T07:29:08.850Z,100800.53
2022-10-25T07:31:39.248Z,100797.72
2022-10-25T07:34:07.602Z,100798.56
2022-10-25T07:36:35.658Z,100794.88
2022-10-25T07:39:04.269Z,100797.59
2022-10-25T07:41:33.646Z,100803.63
2022-10-25T07:44:01.760Z,100805.25
2022-10-25T07:46:29.773Z,100808.59
2022-10-25T07:48:57.768Z,100813.91
2022-10-25T07:51:25.756Z,100822.78
2022-10-25T07:53:54.511Z,100817.97
2022-10-25T07:56:23.744Z,100818.59
2022-10-25T07:58:53.383Z,100826.50
2022-10-25T08:01:23.011Z,100833.41
2022-10-25T08:03:51.380Z,100830.47
2022-10-25T08:06:19.486Z,100828.50
2022-10-25T08:08:47.545Z,100833.06
2022-10-25T08:11:15.720Z,100831.31
2022-10-25T08:13:43.764Z,100832.44
2022-10-25T08:16:13.282Z,100835.25
2022-10-25T08:18:43.283Z,100841.66
2022-10-25T08:21:11.305Z,100846.97
2022-10-25T08:23:39.359Z,100843.91
2022-10-25T08:26:07.676Z,100850.72
2022-10-25T08:28:35.747Z,100851.44
2022-10-25T08:31:04.437Z,100853.91
2022-10-25T08:33:34.334Z,100863.56
2022-10-25T08:36:02.929Z,100854.22
2022-10-25T08:38:31.231Z,100849.53
2022-10-25T08:41:05.936Z,100868.25
2022-10-25T08:44:13.962Z,100866.19
2022-10-25T08:46:44.791Z,100872.34
2022-10-25T08:49:20.882Z,100876.91
2022-10-25T08:51:51.003Z,100880.50
2022-10-25T08:54:26.133Z,100882.09
2022-10-25T08:57:15.140Z,100881.00
2022-10-25T08:59:46.209Z,100889.78
2022-10-25T09:02:19.199Z,100887.84
2022-10-25T09:04:48.837Z,100890.44
2022-10-25T09:07:37.310Z,100895.84
2022-10-25T09:10:16.546Z,100892.28
2022-10-25T09:12:50.499Z,100896.72
2022-10-25T09:15:27.533Z,100897.72
2022-10-25T09:17:55.590Z,100908.69
2022-10-25T09:20:28.045Z,100912.59
2022-10-25T09:23:00.625Z,100913.78
2022-10-25T09:25:33.583Z,100911.44
2022-10-25T09:28:04.070Z,100912.50
2022-10-25T09:30:35.493Z,100916.09
2022-10-25T09:33:09.044Z,100919.56
2022-10-25T09:35:42.473Z,100928.44
2022-10-25T09:38:14.071Z,100932.91
2022-10-25T09:40:47.980Z,100928.94
2022-10-25T09:43:18.793Z,100934.91
2022-10-25T09:45:50.188Z,100927.41
2022-10-25T09:48:23.350Z,100933.75
2022-10-25T09:50:56.563Z,100939.81
2022-10-25T09:53:25.606Z,100942.69
2022-10-25T09:55:55.124Z,100937.41
2022-10-25T09:58:24.700Z,100936.41
2022-10-25T10:00:54.291Z,100944.09
2022-10-25T10:03:23.780Z,100943.31
2022-10-25T10:05:55.208Z,100947.16
2022-10-25T10:08:23.611Z,100945.44
2022-10-25T10:10:51.900Z,100949.25
2022-10-25T10:13:34.722Z,100947.53
2022-10-25T10:16:05.777Z,100952.13
2022-10-25T10:18:34.540Z,100950.13
2022-10-25T10:21:07.670Z,100954.56
2022-10-25T10:23:39.248Z,100956.31
2022-10-25T10:26:13.004Z,100948.66
2022-10-25T10:28:46.305Z,100947.91
2022-10-25T10:31:14.379Z,100958.28
2022-10-25T10:33:48.045Z,100958.66
2022-10-25T10:36:24.086Z,100957.78
2022-10-25T10:38:52.284Z,100959.78
2022-10-25T10:41:28.570Z,100960.97
2022-10-25T10:44:11.553Z,100967.41
2022-10-25T10:46:45.232Z,100971.50
2022-10-25T10:49:13.861Z,100971.25
2022-10-25T10:51:45.372Z,100970.91
2022-10-25T10:54:15.808Z,100979.50
2022-10-25T10:56:43.855Z,100984.22
2022-10-25T10:59:27.532Z,100977.06
2022-10-25T11:01:56.467Z,100983.47
2022-10-25T11:04:26.205Z,100977.06
2022-10-25T11:07:13.515Z,100989.78
2022-10-25T11:09:41.515Z,100984.59
2022-10-25T11:12:14.781Z,100995.81
2022-10-25T11:14:42.880Z,100996.06
2022-10-25T11:17:14.584Z,100995.59
2022-10-25T11:19:59.908Z,100996.66
2022-10-25T11:22:49.699Z,100998.66
2022-10-25T11:25:25.483Z,100996.06
2022-10-25T11:28:03.673Z,101000.00
2022-10-25T11:30:39.080Z,101013.06
2022-10-25T11:33:22.019Z,101009.75
2022-10-25T11:36:16.301Z,101008.38
2022-10-25T11:38:56.220Z,101014.81
2022-10-25T11:41:33.088Z,101018.41
2022-10-25T11:44:20.844Z,101016.44
2022-10-25T11:46:54.302Z,101018.78
2022-10-25T11:49:32.560Z,101018.78
2022-10-25T11:52:18.120Z,101018.31
2022-10-25T11:54:53.864Z,101026.94
2022-10-25T11:57:32.153Z,101017.75
2022-10-25T12:00:03.883Z,101017.66
2022-10-25T12:03:13.818Z,101028.47
2022-10-25T12:05:47.367Z,101027.34
2022-10-25T12:08:29.081Z,101037.69
2022-10-25T12:11:03.447Z,101034.56
2022-10-25T12:13:34.583Z,101042.09
2022-10-25T12:16:04.477Z,101048.50
2022-10-25T12:18:36.536Z,101046.53
2022-10-25T12:21:04.916Z,101051.88
2022-10-25T12:23:40.235Z,101046.38
2022-10-25T12:26:13.581Z,101040.25
2022-10-25T12:28:45.482Z,101038.25
2022-10-25T12:31:18.114Z,101053.56
2022-10-25T12:33:50.144Z,101055.16
2022-10-25T12:36:25.814Z,101048.13
2022-10-25T12:38:53.938Z,101055.16
2022-10-25T12:41:25.449Z,101054.34
2022-10-25T12:44:04.621Z,101054.34
2022-10-25T12:46:57.991Z,101047.94
2022-10-25T12:49:42.829Z,101047.50
2022-10-25T12:52:26.602Z,101052.69
2022-10-25T12:55:16.688Z,101054.50
2022-10-25T12:57:54.779Z,101048.47
2022-10-25T13:00:24.351Z,101049.56
2022-10-25T13:03:29.595Z,101060.00
2022-10-25T13:06:08.028Z,101059.94
2022-10-25T13:08:39.549Z,101057.16
2022-10-25T13:11:09.077Z,101058.78
2022-10-25T13:13:41.400Z,101060.59
2022-10-25T13:16:11.072Z,101066.09
2022-10-25T13:18:45.250Z,101054.28
2022-10-25T13:21:14.592Z,101062.50
2022-10-25T13:24:02.804Z,101070.06
2022-10-25T13:26:33.486Z,101071.13
2022-10-25T13:29:05.368Z,101076.69
2022-10-25T13:31:58.270Z,101076.31
2022-10-25T13:34:35.497Z,101081.13
2022-10-25T13:37:30.472Z,101082.44
2022-10-25T13:39:59.829Z,101090.44
2022-10-25T13:42:32.680Z,101077.09
2022-10-25T13:45:09.129Z,101092.78
2022-10-25T13:47:40.065Z,101090.44
2022-10-25T13:50:20.738Z,101090.41
2022-10-25T13:53:00.261Z,101094.50
2022-10-25T13:55:34.177Z,101096.66
2022-10-25T13:58:02.309Z,101099.06
2022-10-25T14:00:38.745Z,101098.25
2022-10-25T14:03:34.651Z,101097.94
2022-10-25T14:06:22.822Z,101105.16
2022-10-25T14:08:57.114Z,101107.31
2022-10-25T14:11:34.598Z,101098.63
2022-10-25T14:14:06.467Z,101100.28
2022-10-25T14:16:41.343Z,101101.53
2022-10-25T14:19:16.065Z,101113.50
2022-10-25T14:21:46.958Z,101114.38
2022-10-25T14:24:16.744Z,101112.94
2022-10-25T14:26:52.719Z,101114.94
2022-10-25T14:29:22.570Z,101107.78
2022-10-25T14:31:52.432Z,101113.22
2022-10-25T14:34:21.964Z,101102.13
2022-10-25T14:36:51.881Z,101112.25
2022-10-25T14:39:22.916Z,101110.03
2022-10-25T14:41:52.596Z,101105.84
2022-10-25T14:44:27.869Z,101113.72
2022-10-25T14:46:58.157Z,101111.59
2022-10-25T14:49:27.061Z,101116.81
2022-10-25T14:51:56.849Z,101113.91
2022-10-25T14:54:28.398Z,101115.47
2022-10-25T14:56:58.798Z,101120.75
2022-10-25T14:59:30.260Z,101116.06
2022-10-25T15:02:02.161Z,101114.69
2022-10-25T15:04:34.395Z,101119.38
2022-10-25T15:07:03.683Z,101113.06
2022-10-25T15:09:48.700Z,101121.47
2022-10-25T15:12:19.355Z,101122.69
2022-10-25T15:14:48.347Z,101121.28
2022-10-25T15:17:24.374Z,101120.66
2022-10-25T15:20:00.746Z,101121.88
2022-10-25T15:22:30.371Z,101126.66
2022-10-25T15:24:58.679Z,101125.19
2022-10-25T15:27:32.555Z,101123.69
2022-10-25T15:30:00.568Z,101125.00
2022-10-25T15:32:29.928Z,101124.50
2022-10-25T15:35:01.234Z,101125.69
2022-10-25T15:37:30.577Z,101134.06
2022-10-25T15:39:58.767Z,101135.28
2022-10-25T15:42:27.604Z,101137.47
2022-10-25T15:44:55.581Z,101134.22
2022-10-25T15:47:32.974Z,101132.06
2022-10-25T15:50:02.737Z,101138.78
2022-10-25T15:52:30.763Z,101134.78
2022-10-25T15:54:58.748Z,101138.81
2022-10-25T15:57:27.517Z,101142.00
2022-10-25T15:59:55.552Z,101142.44
2022-10-25T16:02:27.105Z,101144.75
2022-10-25T16:04:56.461Z,101144.28
2022-10-25T16:07:24.552Z,101142.13
2022-10-25T16:09:52.673Z,101145.28
2022-10-25T16:12:22.491Z,101143.09
2022-10-25T16:14:51.945Z,101143.66
2022-10-25T16:17:20.004Z,101146.78
2022-10-25T16:19:47.996Z,101151.69
2022-10-25T16:22:17.980Z,101162.81
2022-10-25T16:24:45.978Z,101163.25
2022-10-25T16:27:14.369Z,101167.91
2022-10-25T16:29:42.503Z,101165.50
2022-10-25T16:32:10.645Z,101176.56
2022-10-25T16:34:42.419Z,101175.06
2022-10-25T16:37:11.913Z,101181.44
2022-10-25T16:39:41.542Z,101173.63
2022-10-25T16:42:31.648Z,101187.47
2022-10-25T16:45:01.002Z,101185.09
2022-10-25T16:47:29.463Z,101182.59
2022-10-25T16:49:57.435Z,101184.59
2022-10-25T16:52:25.448Z,101191.19
2022-10-25T16:54:54.848Z,101194.13
2022-10-25T16:57:22.823Z,101185.41
2022-10-25T16:59:51.272Z,101190.19
2022-10-25T17:02:21.184Z,101194.94
2022-10-25T17:04:50.213Z,101199.59
2022-10-25T17:07:18.437Z,101203.44
2022-10-25T17:09:46.540Z,101203.75
2022-10-25T17:12:15.940Z,101205.81
2022-10-25T17:14:43.932Z,101197.09
2022-10-25T17:17:12.030Z,101200.13
2022-10-25T17:19:40.053Z,101199.47
2022-10-25T17:22:08.316Z,101207.00
2022-10-25T17:24:37.680Z,101201.03
2022-10-25T17:27:06.709Z,101201.31
2022-10-25T17:29:36.215Z,101200.75
2022-10-25T17:32:04.317Z,101213.59
2022-10-25T17:34:32.590Z,101214.69
2022-10-25T17:37:02.225Z,101215.72
2022-10-25T17:39:30.761Z,101219.59
2022-10-25T17:41:58.765Z,101216.88
2022-10-25T17:44:26.883Z,101226.06
2022-10-25T17:46:58.425Z,101228.88
2022-10-25T17:49:28.950Z,101220.00
2022-10-25T17:51:56.931Z,101224.59
2022-10-25T17:54:24.929Z,101221.13
2022-10-25T17:56:56.411Z,101232.91
2022-10-25T17:59:24.404Z,101226.84
2022-10-25T18:01:52.506Z,101228.78
2022-10-25T18:04:22.095Z,101233.50
2022-10-25T18:06:50.313Z,101232.81
2022-10-25T18:09:18.524Z,101236.69
2022-10-25T18:11:46.835Z,101235.91
2022-10-25T18:14:14.843Z,101249.59
2022-10-25T18:16:42.840Z,101243.31
2022-10-25T18:19:13.452Z,101244.28
2022-10-25T18:21:42.900Z,101248.94
2022-10-25T18:24:13.107Z,101243.63
2022-10-25T18:26:41.152Z,101247.38
2022-10-25T18:29:09.890Z,101244.78
2022-10-25T18:31:37.902Z,101240.41
2022-10-25T18:34:06.152Z,101250.53
2022-10-25T18:36:34.268Z,101247.19
2022-10-25T18:39:04.184Z,101252.00
2022-10-25T18:41:34.295Z,101247.69
2022-10-25T18:44:03.401Z,101248.75
2022-10-25T18:46:32.639Z,101241.72
2022-10-25T18:49:01.017Z,101242.69
2022-10-25T18:51:29.851Z,101246.50
2022-10-25T18:53:58.819Z,101251.22
2022-10-25T18:56:29.262Z,101242.44
2022-10-25T18:58:58.955Z,101239.94
2022-10-25T19:01:32.043Z,101253.59
2022-10-25T19:04:01.201Z,101248.28
2022-10-25T19:06:29.554Z,101260.16
2022-10-25T19:08:57.723Z,101259.38
2022-10-25T19:11:25.726Z,101260.34
2022-10-25T19:13:57.286Z,101256.00
2022-10-25T19:16:25.417Z,101259.56
2022-10-25T19:18:53.470Z,101254.16
2022-10-25T19:21:21.494Z,101249.53
2022-10-25T19:23:49.471Z,101254.75
2022-10-25T19:26:19.503Z,101254.66
2022-10-25T19:28:48.000Z,101265.28
2022-10-25T19:31:18.548Z,101257.97
2022-10-25T19:33:47.125Z,101255.19
2022-10-25T19:36:15.912Z,101248.81
2022-10-25T19:38:45.063Z,101248.72
2022-10-25T19:41:15.835Z,101255.00
2022-10-25T19:43:43.850Z,101255.00
2022-10-25T19:46:12.335Z,101253.06
2022-10-25T19:48:41.926Z,101252.09
2022-10-25T19:51:11.442Z,101259.22
2022-10-25T19:53:39.842Z,101253.72
2022-10-25T19:56:09.917Z,101255.56
2022-10-25T19:58:38.252Z,101263.56
2022-10-25T20:01:08.398Z,101259.13
2022-10-25T20:03:37.465Z,101251.91
2022-10-25T20:06:09.288Z,101263.66
2022-10-25T20:08:38.502Z,101266.38
2022-10-25T20:11:07.387Z,101262.81
2022-10-25T20:13:35.826Z,101258.38
2022-10-25T20:16:04.017Z,101264.63
2022-10-25T20:18:33.722Z,101266.47
2022-10-25T20:21:03.276Z,101262.13
2022-10-25T20:23:33.091Z,101264.91
2022-10-25T20:26:01.280Z,101272.25
2022-10-25T20:28:30.107Z,101274.25
2022-10-25T20:31:03.398Z,101279.91
2022-10-25T20:33:31.466Z,101280.13
2022-10-25T20:36:02.283Z,101278.38
2022-10-25T20:38:32.149Z,101285.59
2022-10-25T20:41:04.427Z,101286.47
2022-10-25T20:43:32.707Z,101287.25
2022-10-25T20:46:01.159Z,101278.19
2022-10-25T20:48:29.367Z,101285.22
2022-10-25T20:50:57.637Z,101282.44
2022-10-25T20:53:25.707Z,101286.88
2022-10-25T20:55:55.523Z,101285.03
2022-10-25T20:58:24.431Z,101291.25
2022-10-25T21:00:54.660Z,101297.41
2022-10-25T21:03:22.975Z,101296.47
2022-10-25T21:05:53.597Z,101291.06
2022-10-25T21:08:22.889Z,101291.94
2022-10-25T21:10:55.712Z,101297.41
2022-10-25T21:13:23.834Z,101292.97
2022-10-25T21:15:52.041Z,101285.84
2022-10-25T21:18:20.516Z,101293.13
2022-10-25T21:20:49.762Z,101288.69
2022-10-25T21:23:17.740Z,101287.94
2022-10-25T21:25:45.755Z,101292.47
2022-10-25T21:28:15.168Z,101300.75
2022-10-25T21:30:45.993Z,101297.38
2022-10-25T21:33:14.008Z,101295.78
2022-10-25T21:35:42.008Z,101295.00
2022-10-25T21:38:10.031Z,101300.59
2022-10-25T21:40:38.066Z,101290.75
2022-10-25T21:43:06.120Z,101297.13
2022-10-25T21:45:35.497Z,101299.81
2022-10-25T21:48:03.492Z,101303.47
2022-10-25T21:50:31.509Z,101302.63
2022-10-25T21:52:59.503Z,101302.69
2022-10-25T21:55:27.534Z,101303.63
2022-10-25T21:57:57.363Z,101307.28
2022-10-25T22:00:25.522Z,101314.44
2022-10-25T22:02:54.890Z,101311.72
2022-10-25T22:05:22.908Z,101317.13
2022-10-25T22:07:51.120Z,101313.56
2022-10-25T22:10:19.259Z,101318.00
2022-10-25T22:12:47.401Z,101311.72
2022-10-25T22:15:15.791Z,101312.69
2022-10-25T22:17:43.803Z,101319.91
2022-10-25T22:20:13.194Z,101318.97
2022-10-25T22:22:41.167Z,101324.34
2022-10-25T22:25:11.065Z,101319.81
2022-10-25T22:27:39.091Z,101324.28
2022-10-25T22:30:08.229Z,101320.63
2022-10-25T22:32:36.229Z,101323.34
2022-10-25T22:35:04.282Z,101322.47
2022-10-25T22:37:33.630Z,101321.59
2022-10-25T22:40:01.604Z,101313.50
2022-10-25T22:42:29.589Z,101312.59
2022-10-25T22:44:57.611Z,101320.69
2022-10-25T22:47:25.599Z,101319.81
2022-10-25T22:49:53.644Z,101321.75
2022-10-25T22:52:21.632Z,101323.56
2022-10-25T22:54:53.730Z,101328.09
2022-10-25T22:57:21.757Z,101321.84
2022-10-25T22:59:49.739Z,101326.38
2022-10-25T23:02:17.762Z,101320.97
2022-10-25T23:04:45.771Z,101327.34
2022-10-25T23:07:13.791Z,101325.59
2022-10-25T23:09:41.845Z,101328.28
2022-10-25T23:12:11.178Z,101326.56
2022-10-25T23:14:39.203Z,101325.78
2022-10-25T23:17:07.219Z,101324.81
2022-10-25T23:19:35.240Z,101335.69
2022-10-25T23:22:03.204Z,101329.44
2022-10-25T23:24:31.232Z,101332.13
2022-10-25T23:26:59.203Z,101330.31
2022-10-25T23:29:28.567Z,101332.03
2022-10-25T23:31:56.604Z,101331.19
2022-10-25T23:36:57.577Z,101325.78
2022-10-25T23:39:25.584Z,101319.50
2022-10-25T23:41:56.894Z,101320.38
2022-10-25T23:44:25.164Z,101319.50
2022-10-25T23:46:54.554Z,101320.38
2022-10-25T23:49:22.520Z,101318.47
2022-10-25T23:51:50.520Z,101314.88
2022-10-25T23:54:18.539Z,101323.84
2022-10-25T23:56:46.529Z,101323.00
2022-10-25T23:59:14.606Z,101322.13
